ADDS METAR Data

Data at: 0517 UTC 19 Jan 2018

METAR for:KTAN (Taunton Muni, MA, US)
Text:KTAN 190452Z AUTO 28005KT 10SM CLR M04/M09 A2995 RMK AO2 SLP141 T10441094 400171056
Temperature: -4.4°C ( 24°F)
Dewpoint: -9.4°C ( 15°F) [RH = 68%]
Pressure (altimeter):29.95 inches Hg (1014.3 mb) [Sea level pressure: 1014.1 mb]
Winds:from the W (280 degrees) at 6 MPH (5 knots; 2.6 m/s)
Visibility:10 or more sm (16+ km)
Ceiling:at least 12,000 feet AGL
Clouds:sky clear below 12,000 feet AGL
QC Flag:automated observation with no human augmentation